sensor_id;sensor_type;location;lat;lon;timestamp;temperature;humidity
68924;DHT22;55961;52.156;20.942;2023-10-19T00:01:21;2.20;78.50
68924;DHT22;55961;52.156;20.942;2023-10-19T00:03:54;2.20;78.40
68924;DHT22;55961;52.156;20.942;2023-10-19T00:06:22;2.20;78.40
68924;DHT22;55961;52.156;20.942;2023-10-19T00:08:49;2.10;78.40
68924;DHT22;55961;52.156;20.942;2023-10-19T00:11:18;2.10;78.40
68924;DHT22;55961;52.156;20.942;2023-10-19T00:13:52;2.10;78.50
68924;DHT22;55961;52.156;20.942;2023-10-19T00:16:23;2.10;78.40
68924;DHT22;55961;52.156;20.942;2023-10-19T00:18:55;2.10;78.40
68924;DHT22;55961;52.156;20.942;2023-10-19T00:21:25;2.00;78.50
68924;DHT22;55961;52.156;20.942;2023-10-19T00:23:54;2.00;78.70
68924;DHT22;55961;52.156;20.942;2023-10-19T00:26:27;1.90;78.80
68924;DHT22;55961;52.156;20.942;2023-10-19T00:28:55;1.90;79.10
68924;DHT22;55961;52.156;20.942;2023-10-19T00:31:22;1.90;79.20
68924;DHT22;55961;52.156;20.942;2023-10-19T00:33:49;1.80;79.50
68924;DHT22;55961;52.156;20.942;2023-10-19T00:36:19;1.80;79.60
68924;DHT22;55961;52.156;20.942;2023-10-19T00:38:48;1.80;79.70
68924;DHT22;55961;52.156;20.942;2023-10-19T00:41:15;1.80;79.60
68924;DHT22;55961;52.156;20.942;2023-10-19T00:43:48;1.80;79.50
68924;DHT22;55961;52.156;20.942;2023-10-19T00:46:23;1.80;79.50
68924;DHT22;55961;52.156;20.942;2023-10-19T00:48:58;1.80;79.30
68924;DHT22;55961;52.156;20.942;2023-10-19T00:51:29;1.80;79.10
68924;DHT22;55961;52.156;20.942;2023-10-19T00:53:59;1.80;79.70
68924;DHT22;55961;52.156;20.942;2023-10-19T00:56:27;1.80;79.90
68924;DHT22;55961;52.156;20.942;2023-10-19T00:58:57;1.80;79.80
68924;DHT22;55961;52.156;20.942;2023-10-19T01:01:33;1.80;79.50
68924;DHT22;55961;52.156;20.942;2023-10-19T01:04:03;1.80;79.30
68924;DHT22;55961;52.156;20.942;2023-10-19T01:06:29;1.80;79.20
68924;DHT22;55961;52.156;20.942;2023-10-19T01:08:58;1.80;79.10
68924;DHT22;55961;52.156;20.942;2023-10-19T01:11:25;1.80;78.80
68924;DHT22;55961;52.156;20.942;2023-10-19T01:13:54;1.80;78.70
68924;DHT22;55961;52.156;20.942;2023-10-19T01:16:21;1.80;78.60
68924;DHT22;55961;52.156;20.942;2023-10-19T01:18:48;1.80;78.50
68924;DHT22;55961;52.156;20.942;2023-10-19T01:21:16;1.80;78.40
68924;DHT22;55961;52.156;20.942;2023-10-19T01:23:46;1.80;78.30
68924;DHT22;55961;52.156;20.942;2023-10-19T01:26:14;1.80;78.30
68924;DHT22;55961;52.156;20.942;2023-10-19T01:28:47;1.70;78.30
68924;DHT22;55961;52.156;20.942;2023-10-19T01:31:21;1.70;78.20
68924;DHT22;55961;52.156;20.942;2023-10-19T01:33:54;1.70;78.20
68924;DHT22;55961;52.156;20.942;2023-10-19T01:36:22;1.70;78.10
68924;DHT22;55961;52.156;20.942;2023-10-19T01:38:48;1.70;78.10
68924;DHT22;55961;52.156;20.942;2023-10-19T01:41:14;1.70;78.10
68924;DHT22;55961;52.156;20.942;2023-10-19T01:43:45;1.70;78.00
68924;DHT22;55961;52.156;20.942;2023-10-19T01:46:14;1.70;78.10
68924;DHT22;55961;52.156;20.942;2023-10-19T01:48:48;1.60;78.00
68924;DHT22;55961;52.156;20.942;2023-10-19T01:51:26;1.70;78.20
68924;DHT22;55961;52.156;20.942;2023-10-19T01:53:55;1.60;78.00
68924;DHT22;55961;52.156;20.942;2023-10-19T01:56:24;1.60;78.20
68924;DHT22;55961;52.156;20.942;2023-10-19T01:58:51;1.60;78.50
68924;DHT22;55961;52.156;20.942;2023-10-19T02:01:20;1.60;78.70
68924;DHT22;55961;52.156;20.942;2023-10-19T02:03:49;1.50;79.10
68924;DHT22;55961;52.156;20.942;2023-10-19T02:06:20;1.50;79.20
68924;DHT22;55961;52.156;20.942;2023-10-19T02:11:15;1.50;79.50
68924;DHT22;55961;52.156;20.942;2023-10-19T02:13:45;1.50;79.50
68924;DHT22;55961;52.156;20.942;2023-10-19T02:16:13;1.50;79.50
68924;DHT22;55961;52.156;20.942;2023-10-19T02:18:44;1.50;79.50
68924;DHT22;55961;52.156;20.942;2023-10-19T02:21:10;1.50;79.60
68924;DHT22;55961;52.156;20.942;2023-10-19T02:23:40;1.50;79.70
68924;DHT22;55961;52.156;20.942;2023-10-19T02:26:08;1.50;79.80
68924;DHT22;55961;52.156;20.942;2023-10-19T02:28:34;1.40;79.90
68924;DHT22;55961;52.156;20.942;2023-10-19T02:31:03;1.40;79.80
68924;DHT22;55961;52.156;20.942;2023-10-19T02:33:53;1.40;79.90
68924;DHT22;55961;52.156;20.942;2023-10-19T02:36:26;1.40;79.80
68924;DHT22;55961;52.156;20.942;2023-10-19T02:39:00;1.40;79.80
68924;DHT22;55961;52.156;20.942;2023-10-19T02:41:29;1.40;79.80
68924;DHT22;55961;52.156;20.942;2023-10-19T02:43:56;1.40;79.80
68924;DHT22;55961;52.156;20.942;2023-10-19T02:46:55;1.40;79.70
68924;DHT22;55961;52.156;20.942;2023-10-19T02:49:25;1.40;79.60
68924;DHT22;55961;52.156;20.942;2023-10-19T02:51:55;1.40;79.70
68924;DHT22;55961;52.156;20.942;2023-10-19T02:54:25;1.40;79.80
68924;DHT22;55961;52.156;20.942;2023-10-19T02:56:54;1.40;79.70
68924;DHT22;55961;52.156;20.942;2023-10-19T02:59:24;1.40;79.80
68924;DHT22;55961;52.156;20.942;2023-10-19T03:01:55;1.30;79.70
68924;DHT22;55961;52.156;20.942;2023-10-19T03:04:27;1.30;79.70
68924;DHT22;55961;52.156;20.942;2023-10-19T03:06:56;1.30;79.70
68924;DHT22;55961;52.156;20.942;2023-10-19T03:09:22;1.30;79.80
68924;DHT22;55961;52.156;20.942;2023-10-19T03:11:54;1.30;79.70
68924;DHT22;55961;52.156;20.942;2023-10-19T03:14:31;1.30;79.60
68924;DHT22;55961;52.156;20.942;2023-10-19T03:16:57;1.30;79.60
68924;DHT22;55961;52.156;20.942;2023-10-19T03:19:25;1.30;79.50
68924;DHT22;55961;52.156;20.942;2023-10-19T03:21:51;1.30;79.60
68924;DHT22;55961;52.156;20.942;2023-10-19T03:24:18;1.30;79.60
68924;DHT22;55961;52.156;20.942;2023-10-19T03:27:04;1.30;79.50
68924;DHT22;55961;52.156;20.942;2023-10-19T03:29:50;1.30;79.50
68924;DHT22;55961;52.156;20.942;2023-10-19T03:32:21;1.20;79.50
68924;DHT22;55961;52.156;20.942;2023-10-19T03:34:48;1.20;79.40
68924;DHT22;55961;52.156;20.942;2023-10-19T03:37:24;1.20;79.40
68924;DHT22;55961;52.156;20.942;2023-10-19T03:39:51;1.20;79.50
68924;DHT22;55961;52.156;20.942;2023-10-19T03:42:18;1.20;79.60
68924;DHT22;55961;52.156;20.942;2023-10-19T03:44:46;1.20;79.50
68924;DHT22;55961;52.156;20.942;2023-10-19T03:47:16;1.20;79.50
68924;DHT22;55961;52.156;20.942;2023-10-19T03:49:46;1.20;79.40
68924;DHT22;55961;52.156;20.942;2023-10-19T03:52:12;1.10;79.40
68924;DHT22;55961;52.156;20.942;2023-10-19T03:54:39;1.10;79.50
68924;DHT22;55961;52.156;20.942;2023-10-19T03:57:16;1.10;79.40
68924;DHT22;55961;52.156;20.942;2023-10-19T03:59:46;1.10;79.40
68924;DHT22;55961;52.156;20.942;2023-10-19T04:02:15;1.10;79.40
68924;DHT22;55961;52.156;20.942;2023-10-19T04:04:50;1.10;79.50
68924;DHT22;55961;52.156;20.942;2023-10-19T04:07:18;1.10;79.60
68924;DHT22;55961;52.156;20.942;2023-10-19T04:09:55;1.10;79.70
68924;DHT22;55961;52.156;20.942;2023-10-19T04:12:30;1.10;79.80
68924;DHT22;55961;52.156;20.942;2023-10-19T04:14:57;1.10;80.10
68924;DHT22;55961;52.156;20.942;2023-10-19T04:17:23;1.10;80.10
68924;DHT22;55961;52.156;20.942;2023-10-19T04:19:50;1.10;80.40
68924;DHT22;55961;52.156;20.942;2023-10-19T04:22:20;1.10;80.30
68924;DHT22;55961;52.156;20.942;2023-10-19T04:24:50;1.10;80.50
68924;DHT22;55961;52.156;20.942;2023-10-19T04:27:16;1.10;80.60
68924;DHT22;55961;52.156;20.942;2023-10-19T04:29:42;1.10;80.70
68924;DHT22;55961;52.156;20.942;2023-10-19T04:32:10;1.10;81.00
68924;DHT22;55961;52.156;20.942;2023-10-19T04:34:40;1.10;81.10
68924;DHT22;55961;52.156;20.942;2023-10-19T04:37:06;1.10;81.20
68924;DHT22;55961;52.156;20.942;2023-10-19T04:39:33;1.10;81.30
68924;DHT22;55961;52.156;20.942;2023-10-19T04:42:00;1.10;81.40
68924;DHT22;55961;52.156;20.942;2023-10-19T04:44:26;1.10;81.50
68924;DHT22;55961;52.156;20.942;2023-10-19T04:46:52;1.10;81.60
68924;DHT22;55961;52.156;20.942;2023-10-19T04:49:18;1.10;81.70
68924;DHT22;55961;52.156;20.942;2023-10-19T04:51:47;1.20;81.80
68924;DHT22;55961;52.156;20.942;2023-10-19T04:54:13;1.20;81.70
68924;DHT22;55961;52.156;20.942;2023-10-19T04:56:39;1.20;81.80
68924;DHT22;55961;52.156;20.942;2023-10-19T04:59:05;1.20;82.40
68924;DHT22;55961;52.156;20.942;2023-10-19T05:01:31;1.20;82.50
68924;DHT22;55961;52.156;20.942;2023-10-19T05:04:01;1.20;82.40
68924;DHT22;55961;52.156;20.942;2023-10-19T05:06:26;1.20;82.30
68924;DHT22;55961;52.156;20.942;2023-10-19T05:08:52;1.20;82.40
68924;DHT22;55961;52.156;20.942;2023-10-19T05:11:18;1.20;82.50
68924;DHT22;55961;52.156;20.942;2023-10-19T05:13:44;1.20;82.40
68924;DHT22;55961;52.156;20.942;2023-10-19T05:16:10;1.20;82.50
68924;DHT22;55961;52.156;20.942;2023-10-19T05:18:36;1.30;82.60
68924;DHT22;55961;52.156;20.942;2023-10-19T05:21:02;1.30;82.50
68924;DHT22;55961;52.156;20.942;2023-10-19T05:23:28;1.30;82.40
68924;DHT22;55961;52.156;20.942;2023-10-19T05:26:00;1.30;82.50
68924;DHT22;55961;52.156;20.942;2023-10-19T05:28:28;1.30;82.50
68924;DHT22;55961;52.156;20.942;2023-10-19T05:30:54;1.40;82.50
68924;DHT22;55961;52.156;20.942;2023-10-19T05:33:20;1.40;82.50
68924;DHT22;55961;52.156;20.942;2023-10-19T05:35:47;1.40;82.60
68924;DHT22;55961;52.156;20.942;2023-10-19T05:38:13;1.40;82.60
68924;DHT22;55961;52.156;20.942;2023-10-19T05:40:39;1.50;82.80
68924;DHT22;55961;52.156;20.942;2023-10-19T05:43:09;1.50;82.90
68924;DHT22;55961;52.156;20.942;2023-10-19T05:45:34;1.50;83.20
68924;DHT22;55961;52.156;20.942;2023-10-19T05:48:02;1.50;83.20
68924;DHT22;55961;52.156;20.942;2023-10-19T05:50:35;1.50;83.20
68924;DHT22;55961;52.156;20.942;2023-10-19T05:53:03;1.60;83.20
68924;DHT22;55961;52.156;20.942;2023-10-19T05:55:29;1.60;83.10
68924;DHT22;55961;52.156;20.942;2023-10-19T05:57:55;1.60;83.10
68924;DHT22;55961;52.156;20.942;2023-10-19T06:00:22;1.70;83.10
68924;DHT22;55961;52.156;20.942;2023-10-19T06:02:51;1.70;83.10
68924;DHT22;55961;52.156;20.942;2023-10-19T06:05:18;1.70;83.00
68924;DHT22;55961;52.156;20.942;2023-10-19T06:07:45;1.80;83.00
68924;DHT22;55961;52.156;20.942;2023-10-19T06:10:20;1.80;83.10
68924;DHT22;55961;52.156;20.942;2023-10-19T06:12:51;1.80;83.10
68924;DHT22;55961;52.156;20.942;2023-10-19T06:15:20;1.80;83.20
68924;DHT22;55961;52.156;20.942;2023-10-19T06:17:54;1.80;83.20
68924;DHT22;55961;52.156;20.942;2023-10-19T06:20:20;1.80;83.20
68924;DHT22;55961;52.156;20.942;2023-10-19T06:22:56;1.90;83.30
68924;DHT22;55961;52.156;20.942;2023-10-19T06:25:24;1.90;83.50
68924;DHT22;55961;52.156;20.942;2023-10-19T06:27:51;1.90;83.80
68924;DHT22;55961;52.156;20.942;2023-10-19T06:30:18;2.00;84.00
68924;DHT22;55961;52.156;20.942;2023-10-19T06:32:47;2.10;84.20
68924;DHT22;55961;52.156;20.942;2023-10-19T06:35:13;2.10;84.50
68924;DHT22;55961;52.156;20.942;2023-10-19T06:37:39;2.20;84.30
68924;DHT22;55961;52.156;20.942;2023-10-19T06:40:06;2.30;84.40
68924;DHT22;55961;52.156;20.942;2023-10-19T06:42:32;2.30;84.50
68924;DHT22;55961;52.156;20.942;2023-10-19T06:45:00;2.40;84.40
68924;DHT22;55961;52.156;20.942;2023-10-19T06:47:27;2.50;84.30
68924;DHT22;55961;52.156;20.942;2023-10-19T06:49:55;2.60;84.30
68924;DHT22;55961;52.156;20.942;2023-10-19T06:52:22;2.60;84.30
68924;DHT22;55961;52.156;20.942;2023-10-19T06:54:48;2.70;84.30
68924;DHT22;55961;52.156;20.942;2023-10-19T06:57:14;2.80;84.40
68924;DHT22;55961;52.156;20.942;2023-10-19T06:59:40;2.90;84.60
68924;DHT22;55961;52.156;20.942;2023-10-19T07:02:06;3.00;84.60
68924;DHT22;55961;52.156;20.942;2023-10-19T07:04:33;3.00;84.60
68924;DHT22;55961;52.156;20.942;2023-10-19T07:06:59;3.20;84.70
68924;DHT22;55961;52.156;20.942;2023-10-19T07:09:26;3.20;84.80
68924;DHT22;55961;52.156;20.942;2023-10-19T07:11:52;3.40;84.90
68924;DHT22;55961;52.156;20.942;2023-10-19T07:14:22;3.50;84.80
68924;DHT22;55961;52.156;20.942;2023-10-19T07:16:51;3.60;84.80
68924;DHT22;55961;52.156;20.942;2023-10-19T07:19:17;3.70;84.70
68924;DHT22;55961;52.156;20.942;2023-10-19T07:21:44;3.80;84.70
68924;DHT22;55961;52.156;20.942;2023-10-19T07:24:15;3.90;84.70
68924;DHT22;55961;52.156;20.942;2023-10-19T07:26:44;4.00;84.50
68924;DHT22;55961;52.156;20.942;2023-10-19T07:29:21;4.10;84.20
68924;DHT22;55961;52.156;20.942;2023-10-19T07:31:47;4.20;83.90
68924;DHT22;55961;52.156;20.942;2023-10-19T07:34:13;4.40;83.50
68924;DHT22;55961;52.156;20.942;2023-10-19T07:36:41;4.50;82.90
68924;DHT22;55961;52.156;20.942;2023-10-19T07:39:09;4.70;82.30
68924;DHT22;55961;52.156;20.942;2023-10-19T07:41:40;4.80;81.80
68924;DHT22;55961;52.156;20.942;2023-10-19T07:44:06;5.00;81.00
68924;DHT22;55961;52.156;20.942;2023-10-19T07:46:32;5.10;80.40
68924;DHT22;55961;52.156;20.942;2023-10-19T07:48:58;5.20;80.10
68924;DHT22;55961;52.156;20.942;2023-10-19T07:51:26;5.40;79.50
68924;DHT22;55961;52.156;20.942;2023-10-19T07:53:53;5.50;78.60
68924;DHT22;55961;52.156;20.942;2023-10-19T07:56:19;5.60;78.20
68924;DHT22;55961;52.156;20.942;2023-10-19T07:58:45;5.80;78.40
68924;DHT22;55961;52.156;20.942;2023-10-19T08:01:11;5.90;78.20
68924;DHT22;55961;52.156;20.942;2023-10-19T08:03:37;6.00;77.20
68924;DHT22;55961;52.156;20.942;2023-10-19T08:06:03;6.10;76.30
68924;DHT22;55961;52.156;20.942;2023-10-19T08:08:30;6.20;76.00
68924;DHT22;55961;52.156;20.942;2023-10-19T08:11:00;6.30;74.60
68924;DHT22;55961;52.156;20.942;2023-10-19T08:13:27;6.40;74.30
68924;DHT22;55961;52.156;20.942;2023-10-19T08:15:53;6.50;74.20
68924;DHT22;55961;52.156;20.942;2023-10-19T08:18:19;6.60;74.10
68924;DHT22;55961;52.156;20.942;2023-10-19T08:20:45;6.70;73.60
68924;DHT22;55961;52.156;20.942;2023-10-19T08:23:12;6.80;73.40
68924;DHT22;55961;52.156;20.942;2023-10-19T08:25:42;6.80;73.10
68924;DHT22;55961;52.156;20.942;2023-10-19T08:28:10;6.90;72.90
68924;DHT22;55961;52.156;20.942;2023-10-19T08:30:36;7.00;72.00
68924;DHT22;55961;52.156;20.942;2023-10-19T08:33:03;7.10;71.90
68924;DHT22;55961;52.156;20.942;2023-10-19T08:35:29;7.20;71.10
68924;DHT22;55961;52.156;20.942;2023-10-19T08:37:56;7.20;70.50
68924;DHT22;55961;52.156;20.942;2023-10-19T08:40:26;7.30;70.70
68924;DHT22;55961;52.156;20.942;2023-10-19T08:42:53;7.40;70.70
68924;DHT22;55961;52.156;20.942;2023-10-19T08:45:20;7.40;70.60
68924;DHT22;55961;52.156;20.942;2023-10-19T08:48:00;7.50;70.60
68924;DHT22;55961;52.156;20.942;2023-10-19T08:50:28;7.60;70.10
68924;DHT22;55961;52.156;20.942;2023-10-19T08:52:56;7.70;70.20
68924;DHT22;55961;52.156;20.942;2023-10-19T08:55:22;7.80;70.20
68924;DHT22;55961;52.156;20.942;2023-10-19T08:57:49;7.90;70.00
68924;DHT22;55961;52.156;20.942;2023-10-19T09:00:16;8.00;69.30
68924;DHT22;55961;52.156;20.942;2023-10-19T09:02:45;8.00;68.70
68924;DHT22;55961;52.156;20.942;2023-10-19T09:05:11;8.10;68.80
68924;DHT22;55961;52.156;20.942;2023-10-19T09:07:55;8.10;69.00
68924;DHT22;55961;52.156;20.942;2023-10-19T09:10:24;8.20;68.70
68924;DHT22;55961;52.156;20.942;2023-10-19T09:13:03;8.30;68.20
68924;DHT22;55961;52.156;20.942;2023-10-19T09:15:30;8.30;68.20
68924;DHT22;55961;52.156;20.942;2023-10-19T09:18:20;8.40;67.90
68924;DHT22;55961;52.156;20.942;2023-10-19T09:20:49;8.50;67.70
68924;DHT22;55961;52.156;20.942;2023-10-19T09:23:23;8.60;67.70
68924;DHT22;55961;52.156;20.942;2023-10-19T09:25:52;8.70;67.40
68924;DHT22;55961;52.156;20.942;2023-10-19T09:28:22;8.80;67.10
68924;DHT22;55961;52.156;20.942;2023-10-19T09:30:50;9.00;66.00
68924;DHT22;55961;52.156;20.942;2023-10-19T09:33:21;9.10;66.10
68924;DHT22;55961;52.156;20.942;2023-10-19T09:35:48;9.20;65.20
68924;DHT22;55961;52.156;20.942;2023-10-19T09:38:18;9.30;64.60
68924;DHT22;55961;52.156;20.942;2023-10-19T09:40:54;9.40;64.30
68924;DHT22;55961;52.156;20.942;2023-10-19T09:43:49;9.50;64.20
68924;DHT22;55961;52.156;20.942;2023-10-19T09:46:27;9.60;63.60
68924;DHT22;55961;52.156;20.942;2023-10-19T09:48:55;9.70;63.30
68924;DHT22;55961;52.156;20.942;2023-10-19T09:51:22;9.80;62.80
68924;DHT22;55961;52.156;20.942;2023-10-19T09:53:53;9.80;62.30
68924;DHT22;55961;52.156;20.942;2023-10-19T09:56:28;9.90;62.30
68924;DHT22;55961;52.156;20.942;2023-10-19T09:59:02;10.00;62.30
68924;DHT22;55961;52.156;20.942;2023-10-19T10:04:32;10.20;61.80
68924;DHT22;55961;52.156;20.942;2023-10-19T10:06:59;10.30;61.50
68924;DHT22;55961;52.156;20.942;2023-10-19T10:09:29;10.40;61.30
68924;DHT22;55961;52.156;20.942;2023-10-19T10:11:55;10.40;61.00
68924;DHT22;55961;52.156;20.942;2023-10-19T10:14:23;10.50;60.50
68924;DHT22;55961;52.156;20.942;2023-10-19T10:17:00;10.60;60.10
68924;DHT22;55961;52.156;20.942;2023-10-19T10:19:27;10.60;59.90
68924;DHT22;55961;52.156;20.942;2023-10-19T10:22:10;10.60;59.80
68924;DHT22;55961;52.156;20.942;2023-10-19T10:24:44;10.60;60.30
68924;DHT22;55961;52.156;20.942;2023-10-19T10:27:10;10.60;60.70
68924;DHT22;55961;52.156;20.942;2023-10-19T10:29:58;10.70;60.10
68924;DHT22;55961;52.156;20.942;2023-10-19T10:32:47;10.70;60.10
68924;DHT22;55961;52.156;20.942;2023-10-19T10:38:10;10.70;59.80
68924;DHT22;55961;52.156;20.942;2023-10-19T10:40:48;10.80;59.80
68924;DHT22;55961;52.156;20.942;2023-10-19T10:43:15;10.80;60.00
68924;DHT22;55961;52.156;20.942;2023-10-19T10:45:42;10.90;59.80
68924;DHT22;55961;52.156;20.942;2023-10-19T10:48:16;10.90;59.00
68924;DHT22;55961;52.156;20.942;2023-10-19T10:50:43;11.00;58.70
68924;DHT22;55961;52.156;20.942;2023-10-19T10:53:12;11.00;58.70
68924;DHT22;55961;52.156;20.942;2023-10-19T10:55:38;11.10;59.00
68924;DHT22;55961;52.156;20.942;2023-10-19T10:58:05;11.00;58.80
68924;DHT22;55961;52.156;20.942;2023-10-19T11:00:31;11.10;58.90
68924;DHT22;55961;52.156;20.942;2023-10-19T11:03:05;11.10;58.90
68924;DHT22;55961;52.156;20.942;2023-10-19T11:05:33;11.10;58.80
68924;DHT22;55961;52.156;20.942;2023-10-19T11:08:09;11.10;58.60
68924;DHT22;55961;52.156;20.942;2023-10-19T11:10:35;11.10;58.80
68924;DHT22;55961;52.156;20.942;2023-10-19T11:13:06;11.10;58.70
68924;DHT22;55961;52.156;20.942;2023-10-19T11:15:37;11.10;58.60
68924;DHT22;55961;52.156;20.942;2023-10-19T11:18:04;11.10;58.60
68924;DHT22;55961;52.156;20.942;2023-10-19T11:20:33;11.10;59.00
68924;DHT22;55961;52.156;20.942;2023-10-19T11:22:59;11.10;58.90
68924;DHT22;55961;52.156;20.942;2023-10-19T11:25:30;11.10;59.20
68924;DHT22;55961;52.156;20.942;2023-10-19T11:28:00;11.10;58.60
68924;DHT22;55961;52.156;20.942;2023-10-19T11:30:31;11.10;58.20
68924;DHT22;55961;52.156;20.942;2023-10-19T11:32:57;11.20;58.30
68924;DHT22;55961;52.156;20.942;2023-10-19T11:35:33;11.20;58.60
68924;DHT22;55961;52.156;20.942;2023-10-19T11:38:00;11.10;58.70
68924;DHT22;55961;52.156;20.942;2023-10-19T11:40:28;11.10;58.80
68924;DHT22;55961;52.156;20.942;2023-10-19T11:42:55;11.20;58.60
68924;DHT22;55961;52.156;20.942;2023-10-19T11:45:26;11.20;58.30
68924;DHT22;55961;52.156;20.942;2023-10-19T11:47:53;11.20;58.10
68924;DHT22;55961;52.156;20.942;2023-10-19T11:50:19;11.20;58.40
68924;DHT22;55961;52.156;20.942;2023-10-19T11:52:45;11.20;58.40
68924;DHT22;55961;52.156;20.942;2023-10-19T11:55:12;11.10;58.50
68924;DHT22;55961;52.156;20.942;2023-10-19T11:57:42;11.10;58.40
68924;DHT22;55961;52.156;20.942;2023-10-19T12:00:11;11.10;58.40
68924;DHT22;55961;52.156;20.942;2023-10-19T12:02:40;11.10;58.60
68924;DHT22;55961;52.156;20.942;2023-10-19T12:05:09;11.10;58.50
68924;DHT22;55961;52.156;20.942;2023-10-19T12:07:39;11.00;58.70
68924;DHT22;55961;52.156;20.942;2023-10-19T12:10:10;11.00;58.50
68924;DHT22;55961;52.156;20.942;2023-10-19T12:12:36;11.00;58.70
68924;DHT22;55961;52.156;20.942;2023-10-19T12:15:06;11.00;58.80
68924;DHT22;55961;52.156;20.942;2023-10-19T12:17:33;11.00;59.00
68924;DHT22;55961;52.156;20.942;2023-10-19T12:19:59;10.90;59.30
68924;DHT22;55961;52.156;20.942;2023-10-19T12:22:25;11.00;59.30
68924;DHT22;55961;52.156;20.942;2023-10-19T12:24:58;11.00;59.20
68924;DHT22;55961;52.156;20.942;2023-10-19T12:27:25;10.90;59.30
68924;DHT22;55961;52.156;20.942;2023-10-19T12:29:51;10.90;59.10
68924;DHT22;55961;52.156;20.942;2023-10-19T12:32:20;10.90;59.00
68924;DHT22;55961;52.156;20.942;2023-10-19T12:34:47;10.90;58.90
68924;DHT22;55961;52.156;20.942;2023-10-19T12:37:23;10.90;59.30
68924;DHT22;55961;52.156;20.942;2023-10-19T12:39:50;10.90;59.30
68924;DHT22;55961;52.156;20.942;2023-10-19T12:42:17;10.80;59.60
68924;DHT22;55961;52.156;20.942;2023-10-19T12:44:43;10.80;59.40
68924;DHT22;55961;52.156;20.942;2023-10-19T12:47:10;10.80;59.40
68924;DHT22;55961;52.156;20.942;2023-10-19T12:49:42;10.80;59.60
68924;DHT22;55961;52.156;20.942;2023-10-19T12:52:10;10.80;59.70
68924;DHT22;55961;52.156;20.942;2023-10-19T12:54:37;10.70;59.70
68924;DHT22;55961;52.156;20.942;2023-10-19T12:57:06;10.70;60.00
68924;DHT22;55961;52.156;20.942;2023-10-19T12:59:36;10.70;60.10
68924;DHT22;55961;52.156;20.942;2023-10-19T13:02:05;10.60;60.20
68924;DHT22;55961;52.156;20.942;2023-10-19T13:04:34;10.60;60.50
68924;DHT22;55961;52.156;20.942;2023-10-19T13:07:00;10.60;60.50
68924;DHT22;55961;52.156;20.942;2023-10-19T13:09:28;10.60;60.50
68924;DHT22;55961;52.156;20.942;2023-10-19T13:12:00;10.60;60.60
68924;DHT22;55961;52.156;20.942;2023-10-19T13:14:26;10.60;60.70
68924;DHT22;55961;52.156;20.942;2023-10-19T13:16:53;10.60;60.60
68924;DHT22;55961;52.156;20.942;2023-10-19T13:19:23;10.50;60.90
68924;DHT22;55961;52.156;20.942;2023-10-19T13:21:52;10.50;61.10
68924;DHT22;55961;52.156;20.942;2023-10-19T13:24:19;10.50;61.10
68924;DHT22;55961;52.156;20.942;2023-10-19T13:26:47;10.50;61.60
68924;DHT22;55961;52.156;20.942;2023-10-19T13:29:13;10.50;61.30
68924;DHT22;55961;52.156;20.942;2023-10-19T13:31:41;10.50;61.40
68924;DHT22;55961;52.156;20.942;2023-10-19T13:34:07;10.50;61.50
68924;DHT22;55961;52.156;20.942;2023-10-19T13:36:36;10.50;61.50
68924;DHT22;55961;52.156;20.942;2023-10-19T13:39:02;10.50;61.30
68924;DHT22;55961;52.156;20.942;2023-10-19T13:41:29;10.50;61.30
68924;DHT22;55961;52.156;20.942;2023-10-19T13:43:55;10.50;61.40
68924;DHT22;55961;52.156;20.942;2023-10-19T13:46:22;10.50;61.60
68924;DHT22;55961;52.156;20.942;2023-10-19T13:48:49;10.50;61.60
68924;DHT22;55961;52.156;20.942;2023-10-19T13:51:16;10.50;61.80
68924;DHT22;55961;52.156;20.942;2023-10-19T13:53:45;10.60;61.60
68924;DHT22;55961;52.156;20.942;2023-10-19T13:56:12;10.60;61.50
68924;DHT22;55961;52.156;20.942;2023-10-19T13:58:40;10.60;61.30
68924;DHT22;55961;52.156;20.942;2023-10-19T14:01:10;10.60;61.50
68924;DHT22;55961;52.156;20.942;2023-10-19T14:03:37;10.50;61.30
68924;DHT22;55961;52.156;20.942;2023-10-19T14:06:03;10.60;61.30
68924;DHT22;55961;52.156;20.942;2023-10-19T14:08:29;10.50;61.30
68924;DHT22;55961;52.156;20.942;2023-10-19T14:11:03;10.50;61.60
68924;DHT22;55961;52.156;20.942;2023-10-19T14:13:29;10.60;61.70
68924;DHT22;55961;52.156;20.942;2023-10-19T14:15:55;10.50;61.50
68924;DHT22;55961;52.156;20.942;2023-10-19T14:18:22;10.50;61.70
68924;DHT22;55961;52.156;20.942;2023-10-19T14:20:47;10.50;61.80
68924;DHT22;55961;52.156;20.942;2023-10-19T14:23:14;10.50;61.80
68924;DHT22;55961;52.156;20.942;2023-10-19T14:25:40;10.50;61.90
68924;DHT22;55961;52.156;20.942;2023-10-19T14:28:07;10.50;62.10
68924;DHT22;55961;52.156;20.942;2023-10-19T14:30:35;10.50;62.10
68924;DHT22;55961;52.156;20.942;2023-10-19T14:33:04;10.50;62.30
68924;DHT22;55961;52.156;20.942;2023-10-19T14:35:35;10.50;62.20
68924;DHT22;55961;52.156;20.942;2023-10-19T14:38:02;10.50;62.20
68924;DHT22;55961;52.156;20.942;2023-10-19T14:40:28;10.50;62.20
68924;DHT22;55961;52.156;20.942;2023-10-19T14:42:56;10.50;62.10
68924;DHT22;55961;52.156;20.942;2023-10-19T14:45:25;10.50;62.20
68924;DHT22;55961;52.156;20.942;2023-10-19T14:47:54;10.50;62.20
68924;DHT22;55961;52.156;20.942;2023-10-19T14:50:22;10.50;62.40
68924;DHT22;55961;52.156;20.942;2023-10-19T14:52:50;10.40;62.50
68924;DHT22;55961;52.156;20.942;2023-10-19T14:55:20;10.40;62.50
68924;DHT22;55961;52.156;20.942;2023-10-19T14:57:49;10.40;62.60
68924;DHT22;55961;52.156;20.942;2023-10-19T15:00:17;10.40;62.50
68924;DHT22;55961;52.156;20.942;2023-10-19T15:03:01;10.40;62.70
68924;DHT22;55961;52.156;20.942;2023-10-19T15:05:32;10.30;62.80
68924;DHT22;55961;52.156;20.942;2023-10-19T15:08:02;10.30;62.80
68924;DHT22;55961;52.156;20.942;2023-10-19T15:10:30;10.30;62.90
68924;DHT22;55961;52.156;20.942;2023-10-19T15:12:57;10.30;63.00
68924;DHT22;55961;52.156;20.942;2023-10-19T15:15:27;10.30;63.20
68924;DHT22;55961;52.156;20.942;2023-10-19T15:17:54;10.20;63.00
68924;DHT22;55961;52.156;20.942;2023-10-19T15:20:23;10.20;63.00
68924;DHT22;55961;52.156;20.942;2023-10-19T15:22:51;10.20;63.10
68924;DHT22;55961;52.156;20.942;2023-10-19T15:25:17;10.20;63.20
68924;DHT22;55961;52.156;20.942;2023-10-19T15:27:47;10.20;63.40
68924;DHT22;55961;52.156;20.942;2023-10-19T15:30:16;10.20;63.40
68924;DHT22;55961;52.156;20.942;2023-10-19T15:32:44;10.20;63.40
68924;DHT22;55961;52.156;20.942;2023-10-19T15:35:11;10.10;63.40
68924;DHT22;55961;52.156;20.942;2023-10-19T15:37:40;10.10;63.20
68924;DHT22;55961;52.156;20.942;2023-10-19T15:40:07;10.10;63.30
68924;DHT22;55961;52.156;20.942;2023-10-19T15:42:41;10.10;63.40
68924;DHT22;55961;52.156;20.942;2023-10-19T15:45:12;10.10;63.60